createdAt,value
2019-05-15T00:00:15.321Z,74.08
2019-05-15T00:01:15.298Z,73.47
2019-05-15T00:02:15.286Z,73.36
2019-05-15T00:03:15.284Z,73.50
2019-05-15T00:04:15.279Z,73.30
2019-05-15T00:05:15.256Z,74.22
2019-05-15T00:06:15.258Z,73.81
2019-05-15T00:07:15.232Z,74.43
2019-05-15T00:08:15.220Z,74.33
2019-05-15T00:09:15.209Z,74.22
2019-05-15T00:10:15.225Z,73.91
2019-05-15T00:11:15.190Z,74.74
2019-05-15T00:12:15.181Z,74.33
2019-05-15T00:13:15.184Z,74.22
2019-05-15T00:14:15.157Z,74.05
2019-05-15T00:15:15.142Z,74.57
2019-05-15T00:16:15.157Z,74.77
2019-05-15T00:17:15.124Z,75.04
2019-05-15T00:18:15.110Z,74.57
2019-05-15T00:19:15.110Z,74.05
2019-05-15T00:20:15.089Z,74.98
2019-05-15T00:21:15.077Z,75.08
2019-05-15T00:22:15.085Z,75.08
2019-05-15T00:23:15.053Z,75.08
2019-05-15T00:24:15.050Z,74.98
2019-05-15T00:25:15.046Z,75.59
2019-05-15T00:26:15.023Z,74.98
2019-05-15T00:27:15.013Z,74.87
2019-05-15T00:28:15.017Z,75.63
2019-05-15T00:29:16.265Z,75.90
2019-05-15T00:30:14.978Z,75.63
2019-05-15T00:31:14.977Z,75.49
2019-05-15T00:32:14.959Z,75.59
2019-05-15T00:33:14.970Z,75.39
2019-05-15T00:34:14.940Z,74.87
2019-05-15T00:35:14.925Z,75.12
2019-05-15T00:36:14.914Z,74.50
2019-05-15T00:37:14.889Z,75.32
2019-05-15T00:38:14.900Z,75.18
2019-05-15T00:39:14.886Z,75.08
2019-05-15T00:40:14.860Z,75.22
2019-05-15T00:41:14.848Z,75.22
2019-05-15T00:42:14.840Z,75.12
2019-05-15T00:43:14.826Z,75.32
2019-05-15T00:44:14.844Z,75.12
2019-05-15T00:45:14.816Z,75.42
2019-05-15T00:46:14.794Z,75.42
2019-05-15T00:47:14.776Z,75.42
2019-05-15T00:48:14.763Z,75.67
2019-05-15T00:49:14.766Z,75.63
2019-05-15T00:50:14.760Z,75.67
2019-05-15T00:51:14.906Z,76.70
2019-05-15T00:52:14.719Z,76.49
2019-05-15T00:53:14.713Z,76.28
2019-05-15T00:54:14.719Z,74.63
2019-05-15T00:55:14.687Z,75.25
2019-05-15T00:56:14.690Z,74.95
2019-05-15T00:57:14.668Z,74.95
2019-05-15T00:58:14.655Z,74.98
2019-05-15T00:59:24.086Z,75.39
2019-05-15T01:00:15.647Z,75.67
2019-05-15T01:01:14.636Z,76.42
2019-05-15T01:02:14.643Z,76.42
2019-05-15T01:03:14.601Z,76.32
2019-05-15T01:04:14.599Z,76.42
2019-05-15T01:05:14.595Z,76.63
2019-05-15T01:06:14.571Z,76.32
2019-05-15T01:07:14.559Z,76.11
2019-05-15T01:08:14.566Z,76.63
2019-05-15T01:09:14.537Z,76.32
2019-05-15T01:10:14.534Z,76.11
2019-05-15T01:11:14.532Z,76.32
2019-05-15T01:12:14.502Z,76.83
2019-05-15T01:13:14.502Z,76.53
2019-05-15T01:14:14.505Z,76.76
2019-05-15T01:15:14.468Z,76.76
2019-05-15T01:16:14.461Z,76.46
2019-05-15T01:17:14.469Z,76.56
2019-05-15T01:18:14.435Z,76.87
2019-05-15T01:19:15.080Z,77.28
2019-05-15T01:20:14.443Z,77.08
2019-05-15T01:21:14.404Z,77.48
2019-05-15T01:22:14.393Z,76.76
2019-05-15T01:23:14.399Z,77.28
2019-05-15T01:24:14.375Z,77.69
2019-05-15T01:25:14.360Z,77.80
2019-05-15T01:26:14.380Z,78.00
2019-05-15T01:27:14.338Z,77.80
2019-05-15T01:28:14.332Z,77.48
2019-05-15T01:29:14.332Z,77.08
2019-05-15T01:30:14.304Z,76.76
2019-05-15T01:31:14.294Z,77.11
2019-05-15T01:32:14.302Z,78.00
2019-05-15T01:33:14.286Z,78.66
2019-05-15T01:34:14.283Z,77.90
2019-05-15T01:35:14.248Z,78.04
2019-05-15T01:36:14.241Z,77.31
2019-05-15T01:37:14.227Z,77.42
2019-05-15T01:38:14.218Z,77.31
2019-05-15T01:39:14.214Z,77.01
2019-05-15T01:40:14.211Z,76.90
2019-05-15T01:41:14.185Z,77.76
2019-05-15T01:42:14.175Z,77.94
2019-05-15T01:43:14.160Z,77.94
2019-05-15T01:44:14.155Z,78.45
2019-05-15T01:45:14.167Z,78.55
2019-05-15T01:46:14.142Z,78.38
2019-05-15T01:47:14.121Z,78.24
2019-05-15T01:48:14.107Z,78.38
2019-05-15T01:49:14.106Z,78.34
2019-05-15T01:50:14.088Z,78.55
2019-05-15T01:51:14.109Z,78.59
2019-05-15T01:52:14.064Z,78.34
2019-05-15T01:53:14.052Z,78.76
2019-05-15T01:54:14.041Z,78.38
2019-05-15T01:55:14.028Z,78.90
2019-05-15T01:56:14.031Z,78.49
2019-05-15T01:57:14.038Z,77.76
2019-05-15T01:58:14.007Z,77.97
2019-05-15T01:59:13.997Z,77.91
2019-05-15T02:00:13.977Z,78.52
2019-05-15T02:01:13.963Z,77.87
2019-05-15T02:02:13.975Z,78.38
2019-05-15T02:03:13.958Z,78.73
2019-05-15T02:04:13.927Z,78.42
2019-05-15T02:05:13.929Z,79.14
2019-05-15T02:06:13.918Z,78.73
2019-05-15T02:07:13.899Z,78.83
2019-05-15T02:08:13.905Z,78.83
2019-05-15T02:09:13.872Z,78.83
2019-05-15T02:10:13.863Z,79.25
2019-05-15T02:11:13.869Z,78.77
2019-05-15T02:12:13.842Z,78.42
2019-05-15T02:13:13.832Z,78.63
2019-05-15T02:14:13.836Z,79.04
2019-05-15T02:15:13.805Z,79.35
2019-05-15T02:16:13.799Z,79.14
2019-05-15T02:17:13.805Z,79.14
2019-05-15T02:18:13.775Z,78.87
2019-05-15T02:19:13.762Z,78.77
2019-05-15T02:20:13.762Z,78.56
2019-05-15T02:21:13.741Z,78.25
2019-05-15T02:22:13.727Z,78.14
2019-05-15T02:23:13.734Z,78.87
2019-05-15T02:24:13.710Z,78.45
2019-05-15T02:25:13.697Z,78.25
2019-05-15T02:26:13.685Z,78.66
2019-05-15T02:27:13.691Z,78.35
2019-05-15T02:28:13.683Z,78.66
2019-05-15T02:29:16.598Z,78.59
2019-05-15T02:30:24.185Z,78.91
2019-05-15T02:31:14.648Z,79.08
2019-05-15T02:32:13.620Z,79.08
2019-05-15T02:33:13.629Z,78.14
2019-05-15T02:34:13.613Z,78.77
2019-05-15T02:35:13.597Z,78.80
2019-05-15T02:36:13.586Z,78.56
2019-05-15T02:37:13.567Z,79.38
2019-05-15T02:38:15.526Z,79.01
2019-05-15T02:39:13.566Z,79.22
2019-05-15T02:40:13.534Z,79.42
2019-05-15T02:41:13.537Z,79.42
2019-05-15T02:42:13.508Z,79.22
2019-05-15T02:43:13.502Z,78.70
2019-05-15T02:44:13.488Z,79.01
2019-05-15T02:45:13.502Z,79.32
2019-05-15T02:46:13.462Z,79.52
2019-05-15T02:47:13.463Z,79.63
2019-05-15T02:48:13.445Z,79.94
2019-05-15T02:49:13.483Z,79.73
2019-05-15T02:50:13.419Z,79.77
2019-05-15T02:51:13.409Z,79.63
2019-05-15T02:52:13.457Z,79.97
2019-05-15T02:53:13.388Z,79.83
2019-05-15T02:54:13.374Z,79.87
2019-05-15T02:55:13.364Z,79.97
2019-05-15T02:56:13.382Z,79.83
2019-05-15T02:57:13.343Z,80.29
2019-05-15T02:58:13.341Z,80.04
2019-05-15T02:59:13.345Z,79.87
2019-05-15T03:00:32.653Z,79.87
2019-05-15T03:01:14.307Z,79.87
2019-05-15T03:02:13.289Z,80.08
2019-05-15T03:03:13.289Z,79.97
2019-05-15T03:04:13.276Z,79.97
2019-05-15T03:05:13.272Z,80.08
2019-05-15T03:06:13.260Z,79.77
2019-05-15T03:07:13.230Z,79.70
2019-05-15T03:08:13.220Z,80.49
2019-05-15T03:09:13.225Z,80.18
2019-05-15T03:10:13.213Z,80.39
2019-05-15T03:11:13.212Z,80.39
2019-05-15T03:12:13.181Z,80.11
2019-05-15T03:13:13.178Z,80.08
2019-05-15T03:14:13.160Z,80.63
2019-05-15T03:15:13.148Z,80.49
2019-05-15T03:16:13.145Z,81.15
2019-05-15T03:17:13.138Z,80.74
2019-05-15T03:18:13.110Z,80.84
2019-05-15T03:19:13.101Z,80.74
2019-05-15T03:20:13.092Z,80.74
2019-05-15T03:21:13.095Z,80.22
2019-05-15T03:22:13.065Z,80.11
2019-05-15T03:23:13.095Z,81.09
2019-05-15T03:24:13.044Z,81.19
2019-05-15T03:25:13.030Z,80.46
2019-05-15T03:26:13.020Z,81.15
2019-05-15T03:27:13.023Z,81.15
2019-05-15T03:28:13.000Z,80.11
2019-05-15T03:29:13.005Z,80.63
2019-05-15T03:30:14.728Z,80.84
2019-05-15T03:31:32.274Z,80.94
2019-05-15T03:32:24.816Z,81.05
2019-05-15T03:33:24.971Z,80.88
2019-05-15T03:34:21.448Z,80.63
2019-05-15T03:35:15.641Z,80.84
2019-05-15T03:36:14.055Z,81.09
2019-05-15T03:37:13.187Z,80.57
2019-05-15T03:38:12.914Z,80.77
2019-05-15T03:39:12.893Z,80.67
2019-05-15T03:40:12.866Z,80.46
2019-05-15T03:41:12.879Z,80.67
2019-05-15T03:42:12.844Z,81.29
2019-05-15T03:43:12.831Z,80.67
2019-05-15T03:44:12.845Z,80.88
2019-05-15T03:45:12.816Z,81.12
2019-05-15T03:46:12.805Z,80.46
2019-05-15T03:47:12.789Z,80.57
2019-05-15T03:48:12.815Z,81.12
2019-05-15T03:49:12.799Z,81.12
2019-05-15T03:50:12.772Z,81.43
2019-05-15T03:51:12.747Z,80.71
2019-05-15T03:52:12.737Z,81.12
2019-05-15T03:53:12.728Z,81.19
2019-05-15T03:54:12.743Z,80.81
2019-05-15T03:55:12.709Z,80.57
2019-05-15T03:56:12.689Z,80.60
2019-05-15T03:57:12.686Z,81.19
2019-05-15T03:58:12.679Z,81.91
2019-05-15T03:59:12.658Z,81.29
2019-05-15T04:00:12.656Z,81.09
2019-05-15T04:01:28.481Z,80.88
2019-05-15T04:02:13.623Z,80.77
2019-05-15T04:03:12.616Z,80.88
2019-05-15T04:04:12.615Z,80.57
2019-05-15T04:05:12.613Z,80.67
2019-05-15T04:06:12.595Z,80.91
2019-05-15T04:07:12.579Z,81.02
2019-05-15T04:08:12.557Z,80.71
2019-05-15T04:09:12.553Z,80.60
2019-05-15T04:10:12.539Z,80.60
2019-05-15T04:11:12.539Z,80.71
2019-05-15T04:12:12.517Z,80.40
2019-05-15T04:13:12.509Z,81.12
2019-05-15T04:14:12.491Z,80.74
2019-05-15T04:15:12.494Z,80.71
2019-05-15T04:16:12.483Z,81.02
2019-05-15T04:17:12.462Z,81.23
2019-05-15T04:18:12.442Z,80.91
2019-05-15T04:19:12.432Z,80.81
2019-05-15T04:20:12.441Z,80.74
2019-05-15T04:21:12.412Z,81.23
2019-05-15T04:22:12.422Z,80.60
2019-05-15T04:23:12.397Z,81.33
2019-05-15T04:24:12.379Z,81.74
2019-05-15T04:25:12.366Z,80.91
2019-05-15T04:26:12.373Z,80.81
2019-05-15T04:27:12.460Z,80.91
2019-05-15T04:28:12.347Z,81.23
2019-05-15T04:29:12.322Z,80.50
2019-05-15T04:30:12.316Z,80.71
2019-05-15T04:31:12.304Z,80.60
2019-05-15T04:32:12.307Z,80.71
2019-05-15T04:33:12.291Z,80.50
2019-05-15T04:34:12.269Z,80.60
2019-05-15T04:35:12.258Z,81.02
2019-05-15T04:36:12.249Z,81.02
2019-05-15T04:37:12.244Z,81.02
2019-05-15T04:38:12.250Z,80.40
2019-05-15T04:39:12.217Z,80.29
2019-05-15T04:40:12.246Z,81.23
2019-05-15T04:41:12.189Z,80.50
2019-05-15T04:42:12.184Z,81.12
2019-05-15T04:43:12.173Z,80.71
2019-05-15T04:44:12.175Z,81.09
2019-05-15T04:45:12.148Z,80.46
2019-05-15T04:46:12.158Z,80.88
2019-05-15T04:47:12.124Z,80.77
2019-05-15T04:48:12.130Z,80.57
2019-05-15T04:49:12.104Z,80.88
2019-05-15T04:50:12.102Z,81.29
2019-05-15T04:51:12.083Z,81.09
2019-05-15T04:52:12.106Z,80.15
2019-05-15T04:53:12.056Z,80.22
2019-05-15T04:54:12.044Z,80.32
2019-05-15T04:55:12.052Z,80.15
2019-05-15T04:56:12.033Z,80.94
2019-05-15T04:57:12.012Z,81.05
2019-05-15T04:58:12.019Z,80.39
2019-05-15T04:59:11.990Z,80.01
2019-05-15T05:00:11.981Z,80.32
2019-05-15T05:01:11.986Z,80.08
2019-05-15T05:02:17.320Z,79.15
2019-05-15T05:03:12.953Z,78.84
2019-05-15T05:04:11.943Z,78.74
2019-05-15T05:05:11.934Z,78.94
2019-05-15T05:06:11.920Z,78.49
2019-05-15T05:07:11.933Z,78.08
2019-05-15T05:08:11.950Z,78.56
2019-05-15T05:09:11.881Z,78.14
2019-05-15T05:10:11.880Z,77.80
2019-05-15T05:11:11.873Z,77.39
2019-05-15T05:12:11.851Z,76.94
2019-05-15T05:13:11.880Z,76.73
2019-05-15T05:14:11.869Z,76.32
2019-05-15T05:15:11.888Z,76.53
2019-05-15T05:16:11.814Z,76.94
2019-05-15T05:17:11.827Z,76.53
2019-05-15T05:18:11.783Z,76.53
2019-05-15T05:19:11.788Z,76.63
2019-05-15T05:20:11.789Z,76.42
2019-05-15T05:21:11.753Z,76.94
2019-05-15T05:22:11.767Z,75.91
2019-05-15T05:23:11.728Z,75.87
2019-05-15T05:24:11.732Z,76.84
2019-05-15T05:25:11.741Z,76.12
2019-05-15T05:26:11.699Z,76.39
2019-05-15T05:27:11.687Z,76.08
2019-05-15T05:28:11.715Z,75.53
2019-05-15T05:29:11.690Z,75.12
2019-05-15T05:30:11.662Z,74.08
2019-05-15T05:31:14.107Z,73.95
2019-05-15T05:32:11.637Z,72.68
2019-05-15T05:33:11.625Z,73.26
2019-05-15T05:34:11.616Z,72.64
2019-05-15T05:35:11.601Z,72.20
2019-05-15T05:36:11.599Z,71.69
2019-05-15T05:37:11.591Z,71.75
2019-05-15T05:38:11.575Z,71.21
2019-05-15T05:39:15.297Z,70.79
2019-05-15T05:40:12.540Z,71.11
2019-05-15T05:41:11.561Z,69.70
2019-05-15T05:42:11.535Z,68.77
2019-05-15T05:43:11.513Z,69.67
2019-05-15T05:44:11.533Z,69.43
2019-05-15T05:45:11.485Z,67.89
2019-05-15T05:46:11.508Z,67.79
2019-05-15T05:47:11.473Z,65.91
2019-05-15T05:48:11.453Z,65.70
2019-05-15T05:49:11.449Z,65.80
2019-05-15T05:50:11.457Z,65.39
2019-05-15T05:51:11.462Z,65.91
2019-05-15T05:52:11.426Z,66.01
2019-05-15T05:53:11.400Z,65.67
2019-05-15T05:54:11.389Z,65.77
2019-05-15T05:55:11.379Z,64.72
2019-05-15T05:56:11.382Z,63.79
2019-05-15T05:57:11.354Z,63.84
2019-05-15T05:58:11.351Z,63.60
2019-05-15T05:59:11.349Z,61.66
2019-05-15T06:00:11.350Z,62.76
2019-05-15T06:01:11.318Z,62.04
2019-05-15T06:02:11.334Z,61.29
2019-05-15T06:03:11.314Z,61.57
2019-05-15T06:04:11.296Z,60.55
2019-05-15T06:05:11.265Z,59.78
2019-05-15T06:06:11.257Z,59.55
2019-05-15T06:07:14.189Z,57.88
2019-05-15T06:08:11.232Z,56.17
2019-05-15T06:09:11.260Z,53.01
2019-05-15T06:10:11.226Z,55.87
2019-05-15T06:11:11.205Z,54.54
2019-05-15T06:12:11.187Z,54.61
2019-05-15T06:13:11.232Z,52.98
2019-05-15T06:14:11.165Z,52.45
2019-05-15T06:15:11.158Z,49.67
2019-05-15T06:16:11.194Z,48.34
2019-05-15T06:17:11.140Z,48.44
2019-05-15T06:18:11.121Z,46.22
2019-05-15T06:19:11.119Z,46.81
2019-05-15T06:20:11.099Z,48.32
2019-05-15T06:21:11.129Z,46.20
2019-05-15T06:22:11.091Z,44.87
2019-05-15T06:23:11.095Z,44.78
2019-05-15T06:24:13.216Z,44.16
2019-05-15T06:25:11.871Z,45.79
2019-05-15T06:26:11.038Z,45.49
2019-05-15T06:27:11.041Z,47.22
2019-05-15T06:28:11.025Z,44.57
2019-05-15T06:29:11.016Z,45.69
2019-05-15T06:30:18.595Z,46.59
2019-05-15T06:31:11.980Z,44.22
2019-05-15T06:32:10.963Z,42.39
2019-05-15T06:33:13.527Z,42.59
2019-05-15T06:34:10.942Z,41.47
2019-05-15T06:35:10.930Z,42.27
2019-05-15T06:36:10.929Z,43.77
2019-05-15T06:37:10.908Z,42.53
2019-05-15T06:38:10.949Z,41.72
2019-05-15T06:39:10.887Z,40.52
2019-05-15T06:40:10.876Z,41.11
2019-05-15T06:41:10.929Z,41.33
2019-05-15T06:42:10.857Z,40.52
2019-05-15T06:43:10.845Z,41.96
2019-05-15T06:44:10.844Z,41.89
2019-05-15T06:45:10.831Z,43.23
2019-05-15T06:46:10.811Z,43.84
2019-05-15T06:47:10.801Z,43.51
2019-05-15T06:48:10.839Z,43.71
2019-05-15T06:49:10.777Z,44.12
2019-05-15T06:50:10.782Z,43.51
2019-05-15T06:51:10.755Z,42.92
2019-05-15T06:52:10.746Z,43.44
2019-05-15T06:53:11.057Z,45.18
2019-05-15T06:54:10.734Z,44.98
2019-05-15T06:55:10.713Z,43.65
2019-05-15T06:56:10.732Z,45.16
2019-05-15T06:57:10.707Z,42.22
2019-05-15T06:58:10.697Z,43.44
2019-05-15T06:59:10.689Z,43.14
2019-05-15T07:00:10.653Z,44.69
2019-05-15T07:01:10.700Z,44.16
2019-05-15T07:02:10.661Z,45.49
2019-05-15T07:03:21.446Z,44.57
2019-05-15T07:04:11.634Z,46.30
2019-05-15T07:05:10.608Z,43.26
2019-05-15T07:06:10.606Z,43.57
2019-05-15T07:07:11.199Z,44.49
2019-05-15T07:08:10.568Z,42.83
2019-05-15T07:09:10.613Z,43.85
2019-05-15T07:10:10.560Z,43.24
2019-05-15T07:11:10.532Z,41.92
2019-05-15T07:12:10.588Z,41.82
2019-05-15T07:13:10.512Z,41.41
2019-05-15T07:14:10.521Z,44.26
2019-05-15T07:15:10.493Z,44.26
2019-05-15T07:16:10.476Z,44.45
2019-05-15T07:17:10.472Z,43.73
2019-05-15T07:18:10.473Z,40.78
2019-05-15T07:19:10.443Z,42.10
2019-05-15T07:20:10.451Z,42.00
2019-05-15T07:21:10.675Z,40.57
2019-05-15T07:22:10.417Z,40.98
2019-05-15T07:23:10.431Z,40.98
2019-05-15T07:24:10.389Z,41.59
2019-05-15T07:25:10.393Z,41.69
2019-05-15T07:26:10.371Z,42.41
2019-05-15T07:27:10.364Z,41.28
2019-05-15T07:28:10.348Z,40.57
2019-05-15T07:29:10.344Z,41.80
2019-05-15T07:30:12.227Z,40.37
2019-05-15T07:31:11.537Z,40.88
2019-05-15T07:32:10.310Z,40.37
2019-05-15T07:33:10.352Z,40.88
2019-05-15T07:34:10.296Z,41.19
2019-05-15T07:35:10.269Z,39.45
2019-05-15T07:36:10.273Z,41.08
2019-05-15T07:37:10.244Z,40.98
2019-05-15T07:38:10.237Z,41.78
2019-05-15T07:39:10.230Z,40.35
2019-05-15T07:40:10.224Z,40.86
2019-05-15T07:41:10.638Z,40.66
2019-05-15T07:42:10.223Z,39.74
2019-05-15T07:43:10.187Z,40.66
2019-05-15T07:44:10.195Z,41.16
2019-05-15T07:45:10.159Z,40.55
2019-05-15T07:46:10.148Z,42.06
2019-05-15T07:47:10.153Z,40.94
2019-05-15T07:48:10.152Z,41.74
2019-05-15T07:49:10.135Z,41.53
2019-05-15T07:50:10.113Z,41.13
2019-05-15T07:51:11.355Z,38.58
2019-05-15T07:52:10.087Z,38.99
2019-05-15T07:53:10.068Z,39.31
2019-05-15T07:54:10.067Z,39.42
2019-05-15T07:55:10.047Z,39.29
2019-05-15T07:56:11.791Z,40.31
2019-05-15T07:57:10.027Z,40.52
2019-05-15T07:58:10.039Z,40.31
2019-05-15T07:59:10.038Z,38.48
2019-05-15T08:00:09.990Z,38.48
2019-05-15T08:01:10.298Z,37.16
2019-05-15T08:02:09.966Z,36.95
2019-05-15T08:03:10.484Z,38.09
2019-05-15T08:04:24.866Z,40.64
2019-05-15T08:05:10.946Z,39.90
2019-05-15T08:06:09.957Z,38.76
2019-05-15T08:07:09.912Z,39.58
2019-05-15T08:08:09.942Z,40.70
2019-05-15T08:09:09.896Z,39.87
2019-05-15T08:10:09.890Z,37.82
2019-05-15T08:11:20.407Z,37.82
2019-05-15T08:12:10.853Z,37.08
2019-05-15T08:13:09.849Z,36.99
2019-05-15T08:14:09.845Z,37.78
2019-05-15T08:15:09.844Z,39.81
2019-05-15T08:16:09.812Z,37.76
2019-05-15T08:17:09.815Z,35.56
2019-05-15T08:18:12.923Z,37.70
2019-05-15T08:19:09.780Z,37.58
2019-05-15T08:20:09.778Z,35.26
2019-05-15T08:21:09.776Z,35.44
2019-05-15T08:22:09.743Z,35.85
2019-05-15T08:23:09.732Z,36.04
2019-05-15T08:24:09.722Z,36.04
2019-05-15T08:25:13.088Z,35.63
2019-05-15T08:26:10.719Z,34.39
2019-05-15T08:27:09.709Z,35.63
2019-05-15T08:28:09.699Z,35.12
2019-05-15T08:29:09.669Z,35.94
2019-05-15T08:30:09.652Z,35.73
2019-05-15T08:31:10.375Z,36.12
2019-05-15T08:32:09.666Z,35.11
2019-05-15T08:33:09.621Z,34.91
2019-05-15T08:34:15.995Z,36.43
2019-05-15T08:35:12.651Z,35.92
2019-05-15T08:36:09.582Z,34.28
2019-05-15T08:37:09.574Z,35.80
2019-05-15T08:38:09.567Z,34.36
2019-05-15T08:39:09.607Z,34.36
2019-05-15T08:40:09.549Z,34.67
2019-05-15T08:41:11.594Z,34.56
2019-05-15T08:42:09.522Z,34.47
2019-05-15T08:43:11.517Z,34.08
2019-05-15T08:44:09.509Z,34.58
2019-05-15T08:45:09.492Z,34.48
2019-05-15T08:46:09.476Z,35.07
2019-05-15T08:47:09.495Z,33.48
2019-05-15T08:48:09.496Z,34.70
2019-05-15T08:49:09.496Z,35.80
2019-05-15T08:50:09.447Z,35.09
2019-05-15T08:51:09.419Z,36.49
2019-05-15T08:52:10.110Z,34.85
2019-05-15T08:53:09.431Z,34.33
2019-05-15T08:54:09.398Z,35.55
2019-05-15T08:55:09.387Z,34.33
2019-05-15T08:56:09.365Z,34.45
2019-05-15T08:57:09.352Z,38.60
2019-05-15T08:58:13.932Z,34.43
2019-05-15T08:59:09.331Z,33.01
2019-05-15T09:00:09.970Z,34.43
2019-05-15T09:01:09.933Z,35.13
2019-05-15T09:02:09.299Z,34.40
2019-05-15T09:03:09.297Z,35.39
2019-05-15T09:04:09.279Z,32.67
2019-05-15T09:05:09.275Z,34.08
2019-05-15T09:06:09.423Z,33.07
2019-05-15T09:07:09.433Z,33.47
2019-05-15T09:08:09.441Z,33.95
2019-05-15T09:09:09.759Z,35.06
2019-05-15T09:10:09.299Z,32.45
2019-05-15T09:11:09.591Z,33.67
2019-05-15T09:12:09.190Z,33.17
2019-05-15T09:13:09.734Z,33.27
2019-05-15T09:14:09.187Z,35.28
2019-05-15T09:15:09.160Z,35.48
2019-05-15T09:16:09.168Z,33.05
2019-05-15T09:17:09.130Z,33.97
2019-05-15T09:18:15.856Z,34.06
2019-05-15T09:19:10.118Z,34.66
2019-05-15T09:20:09.145Z,33.34
2019-05-15T09:21:09.122Z,32.32
2019-05-15T09:22:09.303Z,31.81
2019-05-15T09:23:09.134Z,32.92
2019-05-15T09:24:09.587Z,32.42
2019-05-15T09:25:09.192Z,33.04
2019-05-15T09:26:09.434Z,33.04
2019-05-15T09:27:10.226Z,33.27
2019-05-15T09:28:09.065Z,34.28
2019-05-15T09:29:09.442Z,33.88
2019-05-15T09:30:08.991Z,33.05
2019-05-15T09:31:08.976Z,34.35
2019-05-15T09:32:12.437Z,33.36
2019-05-15T09:33:08.953Z,33.56
2019-05-15T09:34:09.266Z,33.76
2019-05-15T09:35:08.931Z,34.95
2019-05-15T09:36:09.241Z,34.54
2019-05-15T09:37:08.911Z,34.42
2019-05-15T09:38:08.909Z,34.61
2019-05-15T09:39:08.889Z,32.99
2019-05-15T09:40:09.148Z,33.70
2019-05-15T09:41:09.268Z,36.20
2019-05-15T09:42:08.858Z,34.99
2019-05-15T09:43:10.867Z,32.17
2019-05-15T09:44:08.848Z,33.98
2019-05-15T09:45:09.119Z,31.78
2019-05-15T09:46:10.484Z,33.92
2019-05-15T09:47:09.259Z,30.90
2019-05-15T09:48:10.168Z,31.94
2019-05-15T09:49:09.006Z,33.78
2019-05-15T09:50:08.776Z,32.67
2019-05-15T09:51:09.437Z,34.06
2019-05-15T09:52:09.071Z,33.24
2019-05-15T09:53:09.347Z,33.43
2019-05-15T09:54:08.727Z,31.59
2019-05-15T09:55:08.837Z,33.31
2019-05-15T09:56:08.699Z,32.40
2019-05-15T09:57:10.678Z,33.12
2019-05-15T09:58:08.697Z,34.23
2019-05-15T09:59:09.131Z,31.41
2019-05-15T10:00:09.067Z,34.03
2019-05-15T10:01:08.738Z,32.92
2019-05-15T10:02:09.200Z,32.92
2019-05-15T10:03:09.565Z,32.11
2019-05-15T10:04:08.622Z,32.52
2019-05-15T10:05:11.333Z,32.33
2019-05-15T10:06:08.590Z,32.93
2019-05-15T10:07:08.591Z,32.92
2019-05-15T10:08:09.116Z,35.11
2019-05-15T10:09:09.188Z,32.79
2019-05-15T10:10:08.851Z,33.18
2019-05-15T10:11:09.162Z,34.39
2019-05-15T10:12:09.230Z,34.88
2019-05-15T10:13:09.117Z,31.36
2019-05-15T10:14:09.744Z,32.89
2019-05-15T10:15:11.343Z,32.42
2019-05-15T10:16:08.665Z,32.82
2019-05-15T10:17:09.258Z,33.72
2019-05-15T10:18:09.926Z,33.61
2019-05-15T10:19:08.994Z,32.98
2019-05-15T10:20:09.128Z,34.27
2019-05-15T10:21:09.104Z,33.87
2019-05-15T10:22:09.753Z,31.95
2019-05-15T10:23:08.910Z,31.56
2019-05-15T10:24:09.463Z,32.49
2019-05-15T10:25:08.508Z,32.89
2019-05-15T10:26:13.924Z,33.18
2019-05-15T10:27:09.442Z,34.47
2019-05-15T10:28:09.961Z,33.26
2019-05-15T10:29:09.166Z,32.15
2019-05-15T10:30:09.202Z,34.05
2019-05-15T10:31:09.473Z,32.44
2019-05-15T10:32:08.731Z,33.16
2019-05-15T10:33:08.642Z,33.36
2019-05-15T10:34:09.211Z,34.37
2019-05-15T10:35:24.024Z,32.66
2019-05-15T10:36:09.255Z,33.16
2019-05-15T10:37:08.482Z,34.27
2019-05-15T10:38:08.973Z,33.26
2019-05-15T10:39:08.537Z,33.97
2019-05-15T10:40:09.073Z,34.69
2019-05-15T10:41:11.267Z,33.98
2019-05-15T10:42:09.185Z,34.17
2019-05-15T10:43:09.129Z,34.88
2019-05-15T10:44:09.162Z,34.17
2019-05-15T10:45:08.438Z,33.35
2019-05-15T10:46:13.048Z,32.95
2019-05-15T10:47:09.130Z,32.24
2019-05-15T10:48:09.355Z,34.34
2019-05-15T10:49:08.802Z,33.03
2019-05-15T10:50:08.111Z,33.44
2019-05-15T10:51:10.136Z,31.13
2019-05-15T10:52:08.772Z,32.96
2019-05-15T10:53:10.971Z,31.46
2019-05-15T10:54:08.545Z,34.97
2019-05-15T10:55:09.143Z,34.17
2019-05-15T10:56:08.946Z,35.06
2019-05-15T10:57:08.734Z,31.24
2019-05-15T10:58:14.136Z,31.36
2019-05-15T10:59:09.003Z,33.47
2019-05-15T11:00:08.043Z,33.15
2019-05-15T11:01:19.213Z,30.32
2019-05-15T11:02:08.599Z,30.87
2019-05-15T11:03:08.906Z,31.27
2019-05-15T11:04:09.068Z,32.37
2019-05-15T11:05:09.323Z,32.47
2019-05-15T11:06:09.015Z,31.84
2019-05-15T11:07:09.827Z,32.63
2019-05-15T11:08:08.425Z,31.40
2019-05-15T11:09:08.646Z,31.10
2019-05-15T11:10:08.594Z,29.62
2019-05-15T11:11:09.210Z,30.66
2019-05-15T11:12:08.729Z,30.76
2019-05-15T11:13:08.947Z,31.36
2019-05-15T11:14:09.188Z,32.35
2019-05-15T11:15:11.001Z,31.73
2019-05-15T11:16:07.836Z,32.14
2019-05-15T11:17:07.800Z,30.51
2019-05-15T11:18:09.277Z,31.13
2019-05-15T11:19:08.091Z,30.04
2019-05-15T11:20:08.482Z,31.18
2019-05-15T11:21:08.256Z,31.70
2019-05-15T11:22:09.070Z,31.79
2019-05-15T11:23:08.153Z,32.49
2019-05-15T11:24:08.784Z,32.98
2019-05-15T11:25:09.963Z,33.06
2019-05-15T11:26:08.757Z,32.54
2019-05-15T11:27:09.942Z,34.14
2019-05-15T11:28:08.279Z,32.41
2019-05-15T11:29:09.645Z,30.80
2019-05-15T11:30:07.795Z,30.91
2019-05-15T11:31:10.336Z,29.83
2019-05-15T11:32:08.846Z,34.45
2019-05-15T11:33:09.611Z,30.83
2019-05-15T11:34:09.366Z,31.87
2019-05-15T11:35:07.597Z,32.87
2019-05-15T11:36:07.587Z,33.28
2019-05-15T11:37:07.594Z,32.86
2019-05-15T11:38:10.068Z,32.75
2019-05-15T11:39:08.364Z,32.76
2019-05-15T11:40:09.925Z,31.45
2019-05-15T11:41:08.678Z,32.98
2019-05-15T11:42:08.854Z,32.75
2019-05-15T11:43:08.532Z,32.44
2019-05-15T11:44:07.497Z,34.74
2019-05-15T11:45:07.492Z,30.70
2019-05-15T11:46:09.957Z,33.51
2019-05-15T11:47:07.470Z,31.52
2019-05-15T11:48:09.113Z,33.73
2019-05-15T11:49:09.384Z,33.23
2019-05-15T11:50:08.372Z,31.22
2019-05-15T11:51:09.565Z,32.23
2019-05-15T11:52:08.702Z,32.32
2019-05-15T11:53:08.715Z,32.83
2019-05-15T11:54:08.242Z,32.81
2019-05-15T11:55:08.294Z,34.11
2019-05-15T11:56:09.467Z,33.18
2019-05-15T11:57:08.578Z,32.76
2019-05-15T11:58:09.301Z,30.57
2019-05-15T11:59:08.541Z,31.77
2019-05-15T12:00:14.971Z,30.67
2019-05-15T12:01:08.764Z,30.47
2019-05-15T12:02:08.558Z,31.17
2019-05-15T12:03:08.967Z,31.57
2019-05-15T12:04:09.189Z,30.57
2019-05-15T12:05:09.174Z,31.17
2019-05-15T12:06:16.026Z,31.27
2019-05-15T12:07:08.777Z,32.28
2019-05-15T12:08:09.058Z,30.58
2019-05-15T12:09:09.161Z,32.90
2019-05-15T12:10:10.575Z,30.60
2019-05-15T12:11:11.985Z,29.69
2019-05-15T12:12:08.836Z,30.68
2019-05-15T12:13:09.726Z,29.68
2019-05-15T12:14:08.494Z,30.10
2019-05-15T12:15:07.450Z,30.90
2019-05-15T12:16:07.177Z,32.70
2019-05-15T12:18:09.005Z,33.89
2019-05-15T12:19:16.672Z,31.69
2019-05-15T12:20:10.570Z,33.39
2019-05-15T12:21:07.109Z,30.57
2019-05-15T12:22:07.140Z,30.77
2019-05-15T12:23:09.110Z,31.76
2019-05-15T12:24:09.006Z,32.26
2019-05-15T12:25:09.690Z,31.46
2019-05-15T12:26:09.123Z,30.87
2019-05-15T12:27:15.287Z,33.37
2019-05-15T12:28:09.653Z,31.46
2019-05-15T12:29:09.924Z,31.86
2019-05-15T12:30:09.966Z,30.57
2019-05-15T12:31:08.936Z,30.68
2019-05-15T12:32:25.266Z,30.40
2019-05-15T12:33:09.254Z,29.69
2019-05-15T12:34:09.089Z,30.58
2019-05-15T12:35:06.971Z,30.90
2019-05-15T12:36:10.221Z,30.50
2019-05-15T12:37:09.778Z,31.60
2019-05-15T12:38:09.965Z,30.90
2019-05-15T12:39:10.696Z,31.39
2019-05-15T13:00:10.043Z,31.19
2019-05-15T13:01:16.861Z,33.42
2019-05-15T13:02:08.221Z,33.62
2019-05-15T13:03:08.879Z,33.10
2019-05-15T13:04:08.256Z,34.29
2019-05-15T13:05:08.371Z,33.97
2019-05-15T13:06:08.112Z,30.88
2019-05-15T13:07:13.946Z,30.60
2019-05-15T13:08:08.359Z,32.61
2019-05-15T13:09:08.662Z,32.79
2019-05-15T13:10:08.488Z,31.79
2019-05-15T13:11:09.821Z,33.01
2019-05-15T13:12:08.514Z,31.02
2019-05-15T13:13:08.940Z,32.53